createdAt,value
2017-08-20T00:00:33.226Z,1013.3
2017-08-20T00:01:34.632Z,1013.3
2017-08-20T00:02:56.153Z,1013.3
2017-08-20T00:03:57.559Z,1013.3
2017-08-20T00:05:19.052Z,1013.3
2017-08-20T00:06:20.460Z,1013.3
2017-08-20T00:07:41.976Z,1013.3
2017-08-20T00:08:43.386Z,1013.4
2017-08-20T00:10:04.884Z,1013.4
2017-08-20T00:11:06.292Z,1013.4
2017-08-20T00:12:27.809Z,1013.4
2017-08-20T00:13:29.380Z,1013.4
2017-08-20T00:14:50.886Z,1013.4
2017-08-20T00:15:52.292Z,1013.4
2017-08-20T00:17:13.805Z,1013.4
2017-08-20T00:18:15.215Z,1013.4
2017-08-20T00:19:36.707Z,1013.4
2017-08-20T00:20:38.112Z,1013.4
2017-08-20T00:21:59.609Z,1013.4
2017-08-20T00:23:01.018Z,1013.4
2017-08-20T00:24:22.741Z,1013.4
2017-08-20T00:25:24.283Z,1013.4
2017-08-20T00:26:45.775Z,1013.5
2017-08-20T00:27:47.184Z,1013.5
2017-08-20T00:29:08.703Z,1013.4
2017-08-20T00:30:10.112Z,1013.5
2017-08-20T00:31:31.605Z,1013.5
2017-08-20T00:32:33.011Z,1013.5
2017-08-20T00:33:54.530Z,1013.5
2017-08-20T00:34:55.941Z,1013.4
2017-08-20T00:36:18.579Z,1013.5
2017-08-20T00:37:19.991Z,1013.5
2017-08-20T00:38:41.516Z,1013.5
2017-08-20T00:39:42.923Z,1013.5
2017-08-20T00:41:04.417Z,1013.5
2017-08-20T00:42:05.824Z,1013.5
2017-08-20T00:43:27.340Z,1013.5
2017-08-20T00:44:28.750Z,1013.5
2017-08-20T00:45:50.242Z,1013.5
2017-08-20T00:46:51.648Z,1013.5
2017-08-20T00:48:13.161Z,1013.5
2017-08-20T00:49:14.569Z,1013.5
2017-08-20T00:50:36.064Z,1013.5
2017-08-20T00:51:37.469Z,1013.5
2017-08-20T00:52:58.981Z,1013.5
2017-08-20T00:54:00.390Z,1013.5
2017-08-20T00:55:21.886Z,1013.5
2017-08-20T00:56:23.297Z,1013.5
2017-08-20T00:57:44.804Z,1013.5
2017-08-20T00:58:46.271Z,1013.5
2017-08-20T01:00:07.947Z,1013.5
2017-08-20T01:01:09.364Z,1013.5
2017-08-20T01:02:30.882Z,1013.5
2017-08-20T01:03:32.292Z,1013.5
2017-08-20T01:04:53.790Z,1013.4
2017-08-20T01:05:55.197Z,1013.4
2017-08-20T01:07:16.691Z,1013.4
2017-08-20T01:08:18.097Z,1013.5
2017-08-20T01:09:39.660Z,1013.5
2017-08-20T01:10:41.074Z,1013.5
2017-08-20T01:12:02.640Z,1013.5
2017-08-20T01:13:04.056Z,1013.5
2017-08-20T01:14:25.623Z,1013.5
2017-08-20T01:15:27.043Z,1013.6
2017-08-20T01:16:48.548Z,1013.5
2017-08-20T01:17:49.997Z,1013.5
2017-08-20T01:19:11.542Z,1013.5
2017-08-20T01:20:12.947Z,1013.5
2017-08-20T01:21:34.462Z,1013.5
2017-08-20T01:22:35.872Z,1013.5
2017-08-20T01:23:57.392Z,1013.5
2017-08-20T01:24:58.801Z,1013.4
2017-08-20T01:26:20.303Z,1013.5
2017-08-20T01:27:21.802Z,1013.5
2017-08-20T01:28:43.320Z,1013.5
2017-08-20T01:29:44.729Z,1013.5
2017-08-20T01:31:06.233Z,1013.5
2017-08-20T01:32:07.732Z,1013.5
2017-08-20T01:33:29.321Z,1013.5
2017-08-20T01:34:30.730Z,1013.5
2017-08-20T01:35:52.229Z,1013.6
2017-08-20T01:36:53.634Z,1013.5
2017-08-20T01:38:15.163Z,1013.6
2017-08-20T01:39:16.572Z,1013.6
2017-08-20T01:40:38.105Z,1013.6
2017-08-20T01:41:39.514Z,1013.6
2017-08-20T01:43:01.028Z,1013.5
2017-08-20T01:44:02.438Z,1013.5
2017-08-20T01:45:23.929Z,1013.5
2017-08-20T01:46:25.339Z,1013.5
2017-08-20T01:47:46.906Z,1013.5
2017-08-20T01:48:48.395Z,1013.5
2017-08-20T01:50:09.912Z,1013.5
2017-08-20T01:51:11.320Z,1013.5
2017-08-20T01:52:32.817Z,1013.6
2017-08-20T01:53:34.225Z,1013.6
2017-08-20T01:54:55.734Z,1013.5
2017-08-20T01:55:57.148Z,1013.6
2017-08-20T01:57:18.639Z,1013.6
2017-08-20T01:58:20.048Z,1013.6
2017-08-20T01:59:41.564Z,1013.6
2017-08-20T02:00:42.972Z,1013.6
2017-08-20T02:02:04.476Z,1013.5
2017-08-20T02:03:05.883Z,1013.5
2017-08-20T02:04:27.582Z,1013.5
2017-08-20T02:05:29.056Z,1013.5
2017-08-20T02:06:50.555Z,1013.5
2017-08-20T02:07:52.555Z,1013.5
2017-08-20T02:09:14.078Z,1013.5
2017-08-20T02:10:16.186Z,1013.5
2017-08-20T02:11:37.791Z,1013.5
2017-08-20T02:12:39.219Z,1013.4
2017-08-20T02:14:00.735Z,1013.5
2017-08-20T02:15:02.147Z,1013.4
2017-08-20T02:16:23.644Z,1013.5
2017-08-20T02:17:25.049Z,1013.5
2017-08-20T02:18:46.588Z,1013.5
2017-08-20T02:19:48.002Z,1013.5
2017-08-20T02:21:09.495Z,1013.5
2017-08-20T02:22:10.909Z,1013.5
2017-08-20T02:23:32.428Z,1013.5
2017-08-20T02:24:33.836Z,1013.6
2017-08-20T02:25:56.912Z,1013.6
2017-08-20T02:26:58.419Z,1013.6
2017-08-20T02:28:19.930Z,1013.6
2017-08-20T02:29:21.339Z,1013.7
2017-08-20T02:30:42.828Z,1013.7
2017-08-20T02:31:44.341Z,1013.7
2017-08-20T02:33:05.831Z,1013.7
2017-08-20T02:34:07.239Z,1013.7
2017-08-20T02:35:28.757Z,1013.6
2017-08-20T02:36:30.163Z,1013.6
2017-08-20T02:37:51.657Z,1013.7
2017-08-20T02:38:53.062Z,1013.7
2017-08-20T02:40:14.579Z,1013.7
2017-08-20T02:41:15.988Z,1013.7
2017-08-20T02:42:37.482Z,1013.7
2017-08-20T02:43:38.887Z,1013.7
2017-08-20T02:45:00.400Z,1013.7
2017-08-20T02:46:01.810Z,1013.6
2017-08-20T02:47:23.307Z,1013.7
2017-08-20T02:48:24.712Z,1013.7
2017-08-20T02:49:46.230Z,1013.7
2017-08-20T02:50:47.635Z,1013.7
2017-08-20T02:52:09.127Z,1013.6
2017-08-20T02:53:10.537Z,1013.6
2017-08-20T02:54:32.055Z,1013.6
2017-08-20T02:55:33.462Z,1013.6
2017-08-20T02:56:54.953Z,1013.6
2017-08-20T02:57:56.360Z,1013.6
2017-08-20T02:59:17.876Z,1013.7
2017-08-20T03:00:19.283Z,1013.7
2017-08-20T03:01:40.777Z,1013.7
2017-08-20T03:02:42.184Z,1013.7
2017-08-20T03:04:03.699Z,1013.6
2017-08-20T03:05:05.107Z,1013.6
2017-08-20T03:06:26.603Z,1013.7
2017-08-20T03:07:28.008Z,1013.7
2017-08-20T03:08:49.524Z,1013.7
2017-08-20T03:09:50.929Z,1013.7
2017-08-20T03:11:12.424Z,1013.7
2017-08-20T03:12:13.829Z,1013.7
2017-08-20T03:13:35.324Z,1013.7
2017-08-20T03:14:36.729Z,1013.7
2017-08-20T03:15:58.245Z,1013.7
2017-08-20T03:16:59.652Z,1013.7
2017-08-20T03:18:21.152Z,1013.8
2017-08-20T03:19:22.555Z,1013.7
2017-08-20T03:20:44.067Z,1013.8
2017-08-20T03:21:45.475Z,1013.8
2017-08-20T03:23:06.973Z,1013.9
2017-08-20T03:24:08.377Z,1013.9
2017-08-20T03:25:29.893Z,1013.9
2017-08-20T03:26:31.300Z,1013.9
2017-08-20T03:27:52.792Z,1013.9
2017-08-20T03:28:54.203Z,1013.9
2017-08-20T03:30:15.714Z,1013.9
2017-08-20T03:31:17.121Z,1013.9
2017-08-20T03:32:38.615Z,1013.9
2017-08-20T03:33:40.023Z,1014.0
2017-08-20T03:35:01.535Z,1013.9
2017-08-20T03:36:02.943Z,1013.8
2017-08-20T03:37:24.439Z,1013.8
2017-08-20T03:38:25.845Z,1013.8
2017-08-20T03:39:47.358Z,1013.8
2017-08-20T03:40:48.766Z,1013.9
2017-08-20T03:42:10.262Z,1013.9
2017-08-20T03:43:11.670Z,1013.9
2017-08-20T03:44:33.183Z,1013.8
2017-08-20T03:45:34.591Z,1013.8
2017-08-20T03:46:56.087Z,1013.9
2017-08-20T03:47:57.494Z,1013.8
2017-08-20T03:49:19.012Z,1013.9
2017-08-20T03:50:20.415Z,1013.9
2017-08-20T03:51:41.909Z,1013.9
2017-08-20T03:52:43.316Z,1013.9
2017-08-20T03:54:04.836Z,1013.9
2017-08-20T03:55:06.244Z,1013.9
2017-08-20T03:56:27.755Z,1013.9
2017-08-20T03:57:29.163Z,1014.0
2017-08-20T03:58:50.659Z,1014.0
2017-08-20T03:59:52.066Z,1014.0
2017-08-20T04:01:14.575Z,1014.0
2017-08-20T04:02:15.985Z,1014.0
2017-08-20T04:03:37.477Z,1014.0
2017-08-20T04:04:38.884Z,1014.0
2017-08-20T04:06:00.401Z,1014.0
2017-08-20T04:07:01.815Z,1014.0
2017-08-20T04:08:23.321Z,1014.0
2017-08-20T04:09:24.729Z,1014.0
2017-08-20T04:10:46.243Z,1014.0
2017-08-20T04:11:47.654Z,1014.1
2017-08-20T04:13:09.149Z,1014.1
2017-08-20T04:14:10.563Z,1014.1
2017-08-20T04:15:32.077Z,1014.1
2017-08-20T04:16:33.489Z,1014.2
2017-08-20T04:17:54.984Z,1014.2
2017-08-20T04:18:56.393Z,1014.2
2017-08-20T04:20:17.910Z,1014.2
2017-08-20T04:21:19.323Z,1014.2
2017-08-20T04:22:40.821Z,1014.2
2017-08-20T04:23:42.230Z,1014.2
2017-08-20T04:25:03.746Z,1014.2
2017-08-20T04:26:05.158Z,1014.2
2017-08-20T04:27:26.657Z,1014.2
2017-08-20T04:28:28.072Z,1014.2
2017-08-20T04:29:49.588Z,1014.1
2017-08-20T04:30:50.998Z,1014.2
2017-08-20T04:32:12.496Z,1014.1
2017-08-20T04:33:13.907Z,1014.2
2017-08-20T04:34:35.426Z,1014.2
2017-08-20T04:35:36.836Z,1014.2
2017-08-20T04:36:58.343Z,1014.2
2017-08-20T04:37:59.757Z,1014.2
2017-08-20T04:39:21.250Z,1014.2
2017-08-20T04:40:22.660Z,1014.3
2017-08-20T04:41:44.179Z,1014.3
2017-08-20T04:42:45.592Z,1014.3
2017-08-20T04:44:07.092Z,1014.3
2017-08-20T04:45:08.506Z,1014.3
2017-08-20T04:46:30.022Z,1014.4
2017-08-20T04:47:31.432Z,1014.4
2017-08-20T04:48:52.930Z,1014.3
2017-08-20T04:49:54.340Z,1014.4
2017-08-20T04:51:15.868Z,1014.4
2017-08-20T04:52:17.280Z,1014.3
2017-08-20T04:53:38.777Z,1014.4
2017-08-20T04:54:40.188Z,1014.4
2017-08-20T04:56:01.718Z,1014.4
2017-08-20T04:57:03.126Z,1014.4
2017-08-20T04:58:24.629Z,1014.4
2017-08-20T04:59:26.039Z,1014.4
2017-08-20T05:00:47.561Z,1014.4
2017-08-20T05:01:48.971Z,1014.4
2017-08-20T05:03:10.473Z,1014.4
2017-08-20T05:04:11.884Z,1014.5
2017-08-20T05:05:33.402Z,1014.5
2017-08-20T05:06:34.819Z,1014.5
2017-08-20T05:07:56.314Z,1014.5
2017-08-20T05:08:57.723Z,1014.5
2017-08-20T05:10:19.245Z,1014.5
2017-08-20T05:11:20.654Z,1014.5
2017-08-20T05:12:43.157Z,1014.5
2017-08-20T05:13:44.455Z,1014.5
2017-08-20T05:15:06.089Z,1014.5
2017-08-20T05:16:07.521Z,1014.5
2017-08-20T05:17:29.022Z,1014.5
2017-08-20T05:18:30.435Z,1014.5
2017-08-20T05:19:51.936Z,1014.6
2017-08-20T05:20:53.348Z,1014.6
2017-08-20T05:22:14.865Z,1014.6
2017-08-20T05:23:16.279Z,1014.6
2017-08-20T05:24:37.786Z,1014.6
2017-08-20T05:25:39.201Z,1014.7
2017-08-20T05:27:00.727Z,1014.7
2017-08-20T05:28:02.139Z,1014.7
2017-08-20T05:29:23.643Z,1014.7
2017-08-20T05:30:25.056Z,1014.7
2017-08-20T05:31:46.578Z,1014.7
2017-08-20T05:32:47.989Z,1014.7
2017-08-20T05:34:09.495Z,1014.7
2017-08-20T05:35:10.910Z,1014.7
2017-08-20T05:36:32.439Z,1014.7
2017-08-20T05:37:34.132Z,1014.8
2017-08-20T05:38:55.630Z,1014.7
2017-08-20T05:39:57.045Z,1014.8
2017-08-20T05:41:18.560Z,1014.8
2017-08-20T05:42:19.975Z,1014.7
2017-08-20T05:43:41.478Z,1014.7
2017-08-20T05:44:42.889Z,1014.7
2017-08-20T05:46:04.422Z,1014.8
2017-08-20T05:47:05.832Z,1014.8
2017-08-20T05:48:27.333Z,1014.9
2017-08-20T05:49:28.746Z,1014.8
2017-08-20T05:50:50.266Z,1014.9
2017-08-20T05:51:51.681Z,1014.8
2017-08-20T05:53:23.430Z,1014.8
2017-08-20T05:54:24.844Z,1014.8
2017-08-20T05:55:46.369Z,1014.9
2017-08-20T05:56:47.779Z,1014.9
2017-08-20T05:58:09.303Z,1014.9
2017-08-20T05:59:10.701Z,1014.9
2017-08-20T06:00:32.218Z,1014.8
2017-08-20T06:01:33.632Z,1014.9
2017-08-20T06:02:55.138Z,1014.9
2017-08-20T06:03:56.553Z,1014.9
2017-08-20T06:05:18.058Z,1014.9
2017-08-20T06:06:19.472Z,1014.8
2017-08-20T06:07:40.992Z,1014.8
2017-08-20T06:08:42.405Z,1014.9
2017-08-20T06:10:03.911Z,1014.8
2017-08-20T06:11:05.325Z,1014.8
2017-08-20T06:12:26.849Z,1014.9
2017-08-20T06:13:28.262Z,1014.9
2017-08-20T06:14:49.771Z,1014.9
2017-08-20T06:15:51.193Z,1014.9
2017-08-20T06:17:12.723Z,1014.9
2017-08-20T06:18:14.140Z,1015.0
2017-08-20T06:19:35.649Z,1015.0
2017-08-20T06:20:37.064Z,1015.0
2017-08-20T06:21:58.617Z,1015.0
2017-08-20T06:23:00.040Z,1015.1
2017-08-20T06:24:21.547Z,1015.1
2017-08-20T06:25:22.957Z,1015.1
2017-08-20T06:26:44.486Z,1015.1
2017-08-20T06:27:45.899Z,1015.1
2017-08-20T06:29:07.413Z,1015.1
2017-08-20T06:30:08.823Z,1015.2
2017-08-20T06:31:30.345Z,1015.2
2017-08-20T06:32:31.761Z,1015.1
2017-08-20T06:33:53.305Z,1015.1
2017-08-20T06:34:54.722Z,1015.2
2017-08-20T06:36:16.248Z,1015.2
2017-08-20T06:37:17.668Z,1015.2
2017-08-20T06:38:39.176Z,1015.2
2017-08-20T06:39:40.596Z,1015.2
2017-08-20T06:41:02.114Z,1015.2
2017-08-20T06:42:03.532Z,1015.2
2017-08-20T06:43:25.043Z,1015.3
2017-08-20T06:44:26.463Z,1015.2
2017-08-20T06:45:47.987Z,1015.2
2017-08-20T06:46:49.400Z,1015.2
2017-08-20T06:48:10.912Z,1015.3
2017-08-20T06:49:12.330Z,1015.2
2017-08-20T06:50:33.849Z,1015.3
2017-08-20T06:51:35.267Z,1015.3
2017-08-20T06:52:56.818Z,1015.3
2017-08-20T06:53:58.236Z,1015.3
2017-08-20T06:55:19.754Z,1015.3
2017-08-20T06:56:21.154Z,1015.3
2017-08-20T06:57:42.680Z,1015.3
2017-08-20T06:58:44.099Z,1015.4
2017-08-20T07:00:05.612Z,1015.4
2017-08-20T07:01:07.026Z,1015.3
2017-08-20T07:02:28.562Z,1015.3
2017-08-20T07:03:29.984Z,1015.3
2017-08-20T07:04:51.507Z,1015.3
2017-08-20T07:05:52.940Z,1015.3
2017-08-20T07:07:14.484Z,1015.4
2017-08-20T07:08:15.900Z,1015.3
2017-08-20T07:09:37.898Z,1015.4
2017-08-20T07:10:39.318Z,1015.4
2017-08-20T07:12:00.842Z,1015.4
2017-08-20T07:13:02.266Z,1015.4
2017-08-20T07:14:23.775Z,1015.5
2017-08-20T07:15:25.196Z,1015.4
2017-08-20T07:16:46.717Z,1015.4
2017-08-20T07:17:48.139Z,1015.4
2017-08-20T07:19:09.673Z,1015.5
2017-08-20T07:20:11.103Z,1015.4
2017-08-20T07:21:32.623Z,1015.5
2017-08-20T07:22:34.044Z,1015.5
2017-08-20T07:23:55.550Z,1015.5
2017-08-20T07:24:56.965Z,1015.5
2017-08-20T07:26:18.500Z,1015.6
2017-08-20T07:27:19.916Z,1015.6
2017-08-20T07:28:41.443Z,1015.6
2017-08-20T07:29:42.860Z,1015.6
2017-08-20T07:31:04.370Z,1015.6
2017-08-20T07:32:05.788Z,1015.6
2017-08-20T07:33:27.344Z,1015.6
2017-08-20T07:34:28.772Z,1015.6
2017-08-20T07:35:50.288Z,1015.6
2017-08-20T07:36:51.707Z,1015.6
2017-08-20T07:38:13.238Z,1015.7
2017-08-20T07:39:14.662Z,1015.7
2017-08-20T07:40:36.169Z,1015.7
2017-08-20T07:41:37.593Z,1015.7
2017-08-20T07:42:59.110Z,1015.8
2017-08-20T07:44:00.535Z,1015.7
2017-08-20T07:45:23.058Z,1015.7
2017-08-20T07:46:24.476Z,1015.7
2017-08-20T07:47:46.009Z,1015.7
2017-08-20T07:48:47.432Z,1015.7
2017-08-20T07:50:08.943Z,1015.7
2017-08-20T07:51:10.362Z,1015.8
2017-08-20T07:52:31.889Z,1015.8
2017-08-20T07:53:33.307Z,1015.8
2017-08-20T07:54:54.818Z,1015.8
2017-08-20T07:55:56.235Z,1015.9
2017-08-20T07:57:17.768Z,1015.9
2017-08-20T07:58:19.184Z,1015.9
2017-08-20T07:59:40.692Z,1016.0
2017-08-20T08:00:42.110Z,1016.0
2017-08-20T08:02:03.634Z,1016.0
2017-08-20T08:03:05.052Z,1015.9
2017-08-20T08:04:26.556Z,1015.9
2017-08-20T08:05:27.970Z,1015.9
2017-08-20T08:06:49.497Z,1015.8
2017-08-20T08:07:50.914Z,1015.9
2017-08-20T08:09:12.418Z,1015.9
2017-08-20T08:10:13.835Z,1015.9
2017-08-20T08:11:35.360Z,1015.9
2017-08-20T08:12:36.777Z,1015.9
2017-08-20T08:13:58.281Z,1015.9
2017-08-20T08:14:59.697Z,1015.9
2017-08-20T08:16:21.205Z,1015.9
2017-08-20T08:17:22.619Z,1016.0
2017-08-20T08:18:44.148Z,1015.9
2017-08-20T08:19:45.563Z,1015.9
2017-08-20T08:21:07.071Z,1015.8
2017-08-20T08:22:08.486Z,1015.9
2017-08-20T08:23:30.008Z,1015.8
2017-08-20T08:24:31.428Z,1015.9
2017-08-20T08:25:52.936Z,1015.9
2017-08-20T08:26:54.356Z,1015.9
2017-08-20T08:28:15.886Z,1015.9
2017-08-20T08:29:17.302Z,1015.9
2017-08-20T08:30:38.805Z,1015.9
2017-08-20T08:31:40.223Z,1015.9
2017-08-20T08:33:01.752Z,1015.9
2017-08-20T08:34:03.176Z,1016.0
2017-08-20T08:35:24.677Z,1016.0
2017-08-20T08:36:26.095Z,1016.0
2017-08-20T08:37:47.624Z,1016.0
2017-08-20T08:38:49.039Z,1016.0
2017-08-20T08:40:10.546Z,1016.0
2017-08-20T08:41:11.962Z,1016.0
2017-08-20T08:42:33.491Z,1016.0
2017-08-20T08:43:34.912Z,1016.0
2017-08-20T08:44:56.431Z,1016.1
2017-08-20T08:45:57.849Z,1016.1
2017-08-20T08:47:19.382Z,1016.0
2017-08-20T08:48:20.799Z,1016.0
2017-08-20T08:49:42.317Z,1016.1
2017-08-20T08:50:43.736Z,1016.2
2017-08-20T08:52:05.264Z,1016.2
2017-08-20T08:53:06.682Z,1016.2
2017-08-20T08:54:28.192Z,1016.2
2017-08-20T08:55:29.609Z,1016.2
2017-08-20T08:56:51.118Z,1016.2
2017-08-20T08:57:52.535Z,1016.2
2017-08-20T08:59:14.064Z,1016.1
2017-08-20T09:00:15.480Z,1016.2
2017-08-20T09:01:36.991Z,1016.1
2017-08-20T09:02:38.408Z,1016.1
2017-08-20T09:03:59.935Z,1016.1
2017-08-20T09:05:01.353Z,1016.1
2017-08-20T09:06:24.158Z,1016.1
2017-08-20T09:07:25.580Z,1016.1
2017-08-20T09:08:47.131Z,1016.1
2017-08-20T09:09:48.547Z,1016.1
2017-08-20T09:11:10.072Z,1016.2
2017-08-20T09:12:11.532Z,1016.1
2017-08-20T09:13:33.705Z,1016.0
2017-08-20T09:14:35.124Z,1016.0
2017-08-20T09:15:56.630Z,1016.0
2017-08-20T09:16:58.087Z,1016.1
2017-08-20T09:18:19.617Z,1016.0
2017-08-20T09:19:21.033Z,1016.1
2017-08-20T09:20:42.697Z,1016.0
2017-08-20T09:21:44.109Z,1016.1
2017-08-20T09:23:05.635Z,1016.0
2017-08-20T09:24:07.058Z,1016.1
2017-08-20T09:25:28.560Z,1016.1
2017-08-20T09:26:29.972Z,1016.1
2017-08-20T09:27:51.503Z,1016.1
2017-08-20T09:28:52.920Z,1016.1
2017-08-20T09:30:14.426Z,1016.2
2017-08-20T09:31:15.842Z,1016.1
2017-08-20T09:32:37.582Z,1016.1
2017-08-20T09:33:39.012Z,1016.2
2017-08-20T09:35:00.518Z,1016.1
2017-08-20T09:36:01.937Z,1016.1
2017-08-20T09:37:23.471Z,1016.1
2017-08-20T09:38:24.892Z,1016.1
2017-08-20T09:39:46.429Z,1016.2
2017-08-20T09:40:47.847Z,1016.2
2017-08-20T09:42:09.354Z,1016.2
2017-08-20T09:43:10.772Z,1016.3
2017-08-20T09:44:32.303Z,1016.1
2017-08-20T09:45:33.782Z,1016.2
2017-08-20T09:46:55.289Z,1016.2
2017-08-20T09:47:56.707Z,1016.2
2017-08-20T09:49:18.255Z,1016.2
2017-08-20T09:50:19.738Z,1016.3
2017-08-20T09:51:41.404Z,1016.3
2017-08-20T09:52:42.944Z,1016.2
2017-08-20T09:54:04.472Z,1016.3
2017-08-20T09:55:05.892Z,1016.3
2017-08-20T09:56:27.401Z,1016.3
2017-08-20T09:57:29.767Z,1016.2
2017-08-20T09:58:52.265Z,1016.2
2017-08-20T09:59:54.137Z,1016.2
2017-08-20T10:01:15.704Z,1016.1
2017-08-20T10:02:17.284Z,1016.1
2017-08-20T10:03:38.807Z,1016.1
2017-08-20T10:04:40.225Z,1016.1
2017-08-20T10:06:01.736Z,1016.1
2017-08-20T10:07:03.196Z,1016.1
2017-08-20T10:08:24.742Z,1016.1
2017-08-20T10:09:26.241Z,1016.1
2017-08-20T10:10:47.748Z,1016.1
2017-08-20T10:11:49.250Z,1016.1
2017-08-20T10:13:10.912Z,1016.1
2017-08-20T10:14:12.423Z,1016.1
2017-08-20T10:15:34.030Z,1016.0
2017-08-20T10:16:35.495Z,1016.0
2017-08-20T10:17:57.023Z,1016.0
2017-08-20T10:18:58.508Z,1016.0
2017-08-20T10:20:20.017Z,1015.9
2017-08-20T10:21:21.453Z,1016.0
2017-08-20T10:22:43.030Z,1016.0
2017-08-20T10:23:44.485Z,1015.9
2017-08-20T10:25:06.015Z,1016.0
2017-08-20T12:26:46.508Z,1016.2
2017-08-20T12:27:47.924Z,1016.2
2017-08-20T12:29:09.485Z,1016.3
2017-08-20T12:30:10.938Z,1016.3
2017-08-20T12:31:32.439Z,1016.3
2017-08-20T12:32:33.855Z,1016.3
2017-08-20T12:33:55.364Z,1016.2
2017-08-20T12:34:56.887Z,1016.2
2017-08-20T12:36:18.428Z,1016.2
2017-08-20T12:37:20.118Z,1016.2
2017-08-20T12:38:41.645Z,1016.2
2017-08-20T12:39:43.060Z,1016.2
2017-08-20T12:41:04.776Z,1016.3
2017-08-20T12:42:06.205Z,1016.3
2017-08-20T12:43:27.843Z,1016.3
2017-08-20T12:44:29.267Z,1016.3
2017-08-20T12:45:50.818Z,1016.3
2017-08-20T12:46:52.339Z,1016.3
2017-08-20T12:48:13.849Z,1016.3
2017-08-20T12:49:15.269Z,1016.3
2017-08-20T12:50:36.801Z,1016.2
2017-08-20T12:51:38.247Z,1016.2
2017-08-20T12:52:59.755Z,1016.2
2017-08-20T12:54:01.174Z,1016.3
2017-08-20T12:55:22.703Z,1016.2
2017-08-20T12:56:24.121Z,1016.2
2017-08-20T12:57:45.881Z,1016.2
2017-08-20T12:58:47.304Z,1016.2
2017-08-20T13:00:08.835Z,1016.2
2017-08-20T13:01:10.257Z,1016.3
2017-08-20T13:02:31.767Z,1016.2
2017-08-20T13:03:33.191Z,1016.2
2017-08-20T13:04:54.725Z,1016.2
2017-08-20T13:05:56.141Z,1016.2
2017-08-20T13:07:17.769Z,1016.2
2017-08-20T13:08:19.198Z,1016.2
2017-08-20T13:09:40.763Z,1016.3
2017-08-20T13:10:42.468Z,1016.3
2017-08-20T13:12:04.006Z,1016.2
2017-08-20T13:13:05.439Z,1016.2
2017-08-20T13:14:26.977Z,1016.2
2017-08-20T13:15:28.396Z,1016.2
2017-08-20T13:16:49.910Z,1016.2
2017-08-20T13:17:51.382Z,1016.3
2017-08-20T13:19:12.897Z,1016.3
2017-08-20T13:20:14.366Z,1016.2
2017-08-20T13:21:35.894Z,1016.2
2017-08-20T13:22:37.314Z,1016.2
2017-08-20T13:23:58.830Z,1016.2
2017-08-20T13:25:00.251Z,1016.1
2017-08-20T13:26:21.784Z,1016.1
2017-08-20T13:27:23.202Z,1016.1
2017-08-20T13:29:00.369Z,1016.1
2017-08-20T13:30:01.770Z,1016.1
2017-08-20T13:31:23.676Z,1016.1
2017-08-20T13:32:25.095Z,1016.2
2017-08-20T13:33:46.622Z,1016.2
2017-08-20T13:34:50.047Z,1016.2
2017-08-20T13:36:11.587Z,1016.1
2017-08-20T13:37:13.132Z,1016.2
2017-08-20T13:38:34.639Z,1016.2
2017-08-20T13:39:36.050Z,1016.2
2017-08-20T13:40:57.686Z,1016.2
2017-08-20T13:41:59.108Z,1016.1
2017-08-20T13:43:20.769Z,1016.1
2017-08-20T13:44:22.189Z,1016.2
2017-08-20T13:45:43.739Z,1016.1
2017-08-20T13:46:45.223Z,1016.1
2017-08-20T13:48:06.793Z,1016.2
2017-08-20T13:49:09.020Z,1016.1
2017-08-20T13:50:30.548Z,1016.2
2017-08-20T13:51:31.966Z,1016.3
2017-08-20T13:52:53.478Z,1016.3
2017-08-20T13:53:54.895Z,1016.1
2017-08-20T13:55:16.435Z,1016.2
2017-08-20T13:56:17.852Z,1016.3
2017-08-20T13:57:39.362Z,1016.3
2017-08-20T13:58:40.781Z,1016.2
2017-08-20T14:00:02.305Z,1016.2
2017-08-20T14:01:03.726Z,1016.2
2017-08-20T14:02:25.243Z,1016.3
2017-08-20T14:03:26.659Z,1016.2
2017-08-20T14:04:48.170Z,1016.2
2017-08-20T14:05:49.587Z,1016.2
2017-08-20T14:07:11.114Z,1016.2
2017-08-20T14:08:12.533Z,1016.2
2017-08-20T14:09:34.043Z,1016.2
2017-08-20T14:10:35.465Z,1016.2
2017-08-20T14:11:56.997Z,1016.2
2017-08-20T14:12:58.482Z,1016.2
2017-08-20T14:14:19.995Z,1016.3
2017-08-20T14:15:21.403Z,1016.3
2017-08-20T14:16:42.931Z,1016.3
2017-08-20T14:17:44.350Z,1016.3
2017-08-20T14:19:05.858Z,1016.4
2017-08-20T14:20:07.275Z,1016.4
2017-08-20T14:21:28.830Z,1016.4
2017-08-20T14:22:30.247Z,1016.3
2017-08-20T14:23:51.756Z,1016.3
2017-08-20T14:24:53.172Z,1016.4
2017-08-20T14:26:15.528Z,1016.4
2017-08-20T14:27:16.952Z,1016.4
2017-08-20T14:28:38.487Z,1016.3
2017-08-20T14:29:39.907Z,1016.3
2017-08-20T14:31:01.659Z,1016.3
2017-08-20T14:32:03.171Z,1016.3
2017-08-20T14:33:24.984Z,1016.4
2017-08-20T14:34:26.397Z,1016.3
2017-08-20T14:35:47.950Z,1016.3
2017-08-20T14:36:49.383Z,1016.3
2017-08-20T14:38:10.894Z,1016.4
2017-08-20T14:39:12.308Z,1016.3
2017-08-20T14:40:33.841Z,1016.4
2017-08-20T14:41:35.259Z,1016.4
2017-08-20T14:42:56.996Z,1016.4
2017-08-20T14:43:58.513Z,1016.4
2017-08-20T14:45:20.042Z,1016.4
2017-08-20T14:46:21.510Z,1016.4
2017-08-20T14:47:43.017Z,1016.4
2017-08-20T14:48:44.434Z,1016.4
2017-08-20T14:50:05.959Z,1016.4
2017-08-20T14:51:07.398Z,1016.3
2017-08-20T14:52:28.936Z,1016.3
2017-08-20T14:53:30.369Z,1016.3
2017-08-20T14:54:52.117Z,1016.3
2017-08-20T14:55:53.556Z,1016.4
2017-08-20T14:57:15.156Z,1016.3
2017-08-20T14:58:16.573Z,1016.2
2017-08-20T14:59:38.092Z,1016.3
2017-08-20T15:00:39.660Z,1016.3
2017-08-20T15:02:01.490Z,1016.3
2017-08-20T15:03:02.908Z,1016.3
2017-08-20T15:04:24.462Z,1016.3
2017-08-20T15:05:26.030Z,1016.4
2017-08-20T15:06:47.582Z,1016.3
2017-08-20T15:07:49.000Z,1016.4
2017-08-20T15:09:10.567Z,1016.4
2017-08-20T15:10:05.656Z,1016.3
2017-08-20T15:11:07.257Z,1016.3
2017-08-20T15:12:30.129Z,1016.3
2017-08-20T15:13:31.554Z,1016.4
2017-08-20T15:14:53.063Z,1016.3
2017-08-20T15:15:54.590Z,1016.3
2017-08-20T15:17:16.190Z,1016.4
2017-08-20T15:18:17.989Z,1016.4
2017-08-20T15:19:39.529Z,1016.4
2017-08-20T15:20:41.120Z,1016.5
2017-08-20T15:22:03.143Z,1016.5
2017-08-20T15:23:04.576Z,1016.5
2017-08-20T15:24:26.085Z,1016.6
2017-08-20T15:25:27.556Z,1016.6
2017-08-20T15:26:49.093Z,1016.7
2017-08-20T15:27:50.533Z,1016.8
2017-08-20T15:29:12.101Z,1016.8
2017-08-20T15:30:13.532Z,1016.8
2017-08-20T15:31:35.072Z,1016.7
2017-08-20T15:32:36.492Z,1016.7
2017-08-20T15:33:58.064Z,1016.7
2017-08-20T15:34:59.480Z,1016.7
2017-08-20T15:36:21.023Z,1016.7
2017-08-20T15:37:22.461Z,1016.6
2017-08-20T15:38:43.979Z,1016.6
2017-08-20T15:39:46.789Z,1016.6
2017-08-20T15:41:08.458Z,1016.6
2017-08-20T15:42:09.874Z,1016.6
2017-08-20T15:43:31.587Z,1016.7
2017-08-20T15:44:33.145Z,1016.7
2017-08-20T15:45:54.816Z,1016.7
2017-08-20T15:46:56.253Z,1016.7
2017-08-20T15:48:18.319Z,1016.7
2017-08-20T15:49:19.672Z,1016.7
2017-08-20T15:50:41.357Z,1016.8
2017-08-20T15:51:42.809Z,1016.8
2017-08-20T15:53:04.594Z,1016.7
2017-08-20T15:54:06.001Z,1016.7
2017-08-20T15:55:27.586Z,1016.7
2017-08-20T15:56:29.107Z,1016.8
2017-08-20T15:57:50.838Z,1016.8
2017-08-20T15:58:52.352Z,1016.8
2017-08-20T16:00:13.927Z,1016.8
2017-08-20T16:01:15.348Z,1016.8
2017-08-20T16:02:37.027Z,1016.7
2017-08-20T16:03:38.432Z,1016.7
2017-08-20T16:04:59.939Z,1016.7
2017-08-20T16:06:01.421Z,1016.7
2017-08-20T16:07:22.947Z,1016.7
2017-08-20T16:08:24.362Z,1016.6
2017-08-20T16:09:45.870Z,1016.6
2017-08-20T16:10:47.286Z,1016.6
2017-08-20T16:12:08.988Z,1016.6
2017-08-20T16:13:10.768Z,1016.5
2017-08-20T16:14:32.307Z,1016.6
2017-08-20T16:15:33.766Z,1016.6
2017-08-20T16:16:55.556Z,1016.5
2017-08-20T16:17:57.365Z,1016.6
2017-08-20T16:19:19.491Z,1016.5
2017-08-20T16:20:21.359Z,1016.5
2017-08-20T16:21:43.125Z,1016.5
2017-08-20T16:22:44.963Z,1016.5
2017-08-20T16:24:06.488Z,1016.5
2017-08-20T16:25:07.909Z,1016.5
2017-08-20T16:26:29.504Z,1016.5
2017-08-20T16:27:30.992Z,1016.5
2017-08-20T16:28:52.542Z,1016.6
2017-08-20T16:29:53.957Z,1016.6
2017-08-20T16:31:15.469Z,1016.6
2017-08-20T16:32:16.909Z,1016.6
2017-08-20T16:33:38.441Z,1016.6
2017-08-20T16:34:39.857Z,1016.6
2017-08-20T16:36:01.370Z,1016.6
2017-08-20T16:37:02.802Z,1016.6
2017-08-20T16:38:24.374Z,1016.6
2017-08-20T16:39:25.790Z,1016.6
2017-08-20T16:40:47.310Z,1016.6
2017-08-20T16:41:49.055Z,1016.6
2017-08-20T16:43:10.594Z,1016.6
2017-08-20T16:44:12.018Z,1016.6
2017-08-20T16:45:33.545Z,1016.6
2017-08-20T16:46:35.494Z,1016.6
2017-08-20T16:47:57.996Z,1016.6
2017-08-20T16:48:59.412Z,1016.6
2017-08-20T16:50:20.919Z,1016.6
2017-08-20T16:51:22.335Z,1016.6
2017-08-20T16:52:43.864Z,1016.6